Home > Products > Valid Products > TAF

000
FTUS44 KSHV 281137
TAFSHV
TAF
KSHV 281137Z 2812/2912 VRB03KT P6SM FEW250
     FM281800 13005KT P6SM FEW250
     FM291100 18003KT P6SM SCT250=



000
FTUS44 KSHV 281137
TAFMLU
TAF
KMLU 281137Z 2812/2912 VRB03KT P6SM FEW250
     FM281500 11005KT P6SM SCT250
     FM290300 00000KT P6SM FEW250=



000
FTUS44 KSHV 281137
TAFTXK
TAF
KTXK 281137Z 2812/2912 08003KT P6SM FEW250
     FM281700 12005KT P6SM SCT250
     FM291100 18005KT P6SM SCT250=



000
FTUS44 KSHV 281137
TAFTYR
TAF
KTYR 281137Z 2812/2912 12005KT P6SM SCT250
     FM291000 19005KT P6SM SCT250=



000
FTUS44 KSHV 281137
TAFLFK
TAF
KLFK 281137Z 2812/2912 VRB03KT P6SM FEW250
     FM281800 12005KT P6SM FEW250
     FM290900 20005KT P6SM FEW250=



000
FTUS44 KSHV 281137
TAFGGG
TAF
KGGG 281137Z 2812/2912 09004KT P6SM FEW250
     FM281600 13005KT P6SM SCT250
     FM291000 19005KT P6SM SCT250=



000
FTUS44 KSHV 281137
TAFELD
TAF
KELD 281137Z 2812/2912 VRB03KT P6SM FEW250
     FM281800 10005KT P6SM FEW250
     FM290300 VRB03KT P6SM FEW250=



000
FTUS44 KSHV 281137
TAFTYR
TAF
KTYR 281137Z 2812/2912 12005KT P6SM SCT250
     FM291000 19005KT P6SM SCT250=



000
FTUS44 KSHV 281137
TAFELD
TAF
KELD 281137Z 2812/2912 VRB03KT P6SM FEW250
     FM281800 10005KT P6SM FEW250
     FM290300 VRB03KT P6SM FEW250=



000
FTUS44 KSHV 281137
TAFTXK
TAF
KTXK 281137Z 2812/2912 08003KT P6SM FEW250
     FM281700 12005KT P6SM SCT250
     FM291100 18005KT P6SM SCT250=



000
FTUS44 KSHV 281137
TAFLFK
TAF
KLFK 281137Z 2812/2912 VRB03KT P6SM FEW250
     FM281800 12005KT P6SM FEW250
     FM290900 20005KT P6SM FEW250=



000
FTUS44 KSHV 281137
TAFMLU
TAF
KMLU 281137Z 2812/2912 VRB03KT P6SM FEW250
     FM281500 11005KT P6SM SCT250
     FM290300 00000KT P6SM FEW250=



000
FTUS44 KSHV 281137
TAFGGG
TAF
KGGG 281137Z 2812/2912 09004KT P6SM FEW250
     FM281600 13005KT P6SM SCT250
     FM291000 19005KT P6SM SCT250=



000
FTUS44 KSHV 281137
TAFSHV
TAF
KSHV 281137Z 2812/2912 VRB03KT P6SM FEW250
     FM281800 13005KT P6SM FEW250
     FM291100 18003KT P6SM SCT250=



000
FTUS44 KSHV 280523
TAFLFK
TAF
KLFK 280523Z 2806/2906 VRB03KT P6SM BKN250
     FM281800 12005KT P6SM FEW250=



000
FTUS44 KSHV 280523
TAFGGG
TAF
KGGG 280523Z 2806/2906 VRB04KT P6SM BKN250
     FM282100 13005KT P6SM FEW250=



000
FTUS44 KSHV 280523
TAFMLU
TAF
KMLU 280523Z 2806/2906 VRB03KT P6SM BKN250
     FM281500 11005KT P6SM SCT250
     FM290300 00000KT P6SM FEW250=



000
FTUS44 KSHV 280523
TAFSHV
TAF
KSHV 280523Z 2806/2906 VRB03KT P6SM SCT250
     FM281800 11005KT P6SM FEW250=



000
FTUS44 KSHV 280523
TAFELD
TAF
KELD 280523Z 2806/2906 VRB03KT P6SM BKN250
     FM281800 10005KT P6SM SCT250
     FM290300 00000KT P6SM FEW250=



000
FTUS44 KSHV 280523
TAFTYR
TAF
KTYR 280523Z 2806/2906 VRB03KT P6SM BKN250
     FM281500 14005KT P6SM FEW250=



000
FTUS44 KSHV 280523
TAFTXK
TAF
KTXK 280523Z 2806/2906 VRB03KT P6SM BKN250
     FM282100 12005KT P6SM SCT250=



000
FTUS44 KSHV 280523
TAFMLU
TAF
KMLU 280523Z 2806/2906 VRB03KT P6SM BKN250
     FM281500 11005KT P6SM SCT250
     FM290300 00000KT P6SM FEW250=



000
FTUS44 KSHV 280523
TAFTXK
TAF
KTXK 280523Z 2806/2906 VRB03KT P6SM BKN250
     FM282100 12005KT P6SM SCT250=



000
FTUS44 KSHV 280523
TAFTYR
TAF
KTYR 280523Z 2806/2906 VRB03KT P6SM BKN250
     FM281500 14005KT P6SM FEW250=



000
FTUS44 KSHV 280523
TAFLFK
TAF
KLFK 280523Z 2806/2906 VRB03KT P6SM BKN250
     FM281800 12005KT P6SM FEW250=



000
FTUS44 KSHV 280523
TAFGGG
TAF
KGGG 280523Z 2806/2906 VRB04KT P6SM BKN250
     FM282100 13005KT P6SM FEW250=



000
FTUS44 KSHV 280523
TAFSHV
TAF
KSHV 280523Z 2806/2906 VRB03KT P6SM SCT250
     FM281800 11005KT P6SM FEW250=



000
FTUS44 KSHV 280523
TAFELD
TAF
KELD 280523Z 2806/2906 VRB03KT P6SM BKN250
     FM281800 10005KT P6SM SCT250
     FM290300 00000KT P6SM FEW250=



000
FTUS44 KSHV 272340
TAFTXK
TAF
KTXK 272340Z 2800/2824 VRB03KT P6SM BKN250
     FM281500 VRB05KT P6SM SCT250=



000
FTUS44 KSHV 272340
TAFTYR
TAF
KTYR 272340Z 2800/2824 16005KT P6SM BKN250
     FM280100 12004KT P6SM BKN250
     FM281500 16006KT P6SM FEW250=



000
FTUS44 KSHV 272340
TAFELD
TAF
KELD 272340Z 2800/2824 VRB03KT P6SM BKN250
     FM281500 VRB04KT P6SM SCT250=



000
FTUS44 KSHV 272340
TAFSHV
TAF
KSHV 272340Z 2800/2824 VRB04KT P6SM BKN250
     FM280600 VRB03KT P6SM SCT250
     FM281800 11005KT P6SM FEW250=



000
FTUS44 KSHV 272340
TAFLFK
TAF
KLFK 272340Z 2800/2824 VRB05KT P6SM BKN250
     FM280100 VRB03KT P6SM BKN250
     FM281800 VRB05KT P6SM FEW250=



000
FTUS44 KSHV 272340
TAFMLU
TAF
KMLU 272340Z 2800/2824 VRB03KT P6SM BKN250
     FM281500 VRB04KT P6SM SCT250=



000
FTUS44 KSHV 272340
TAFGGG
TAF
KGGG 272340Z 2800/2824 VRB05KT P6SM BKN250
     FM280100 VRB04KT P6SM BKN250
     FM282100 12005KT P6SM FEW250=



000
FTUS44 KSHV 272340
TAFSHV
TAF
KSHV 272340Z 2800/2824 VRB04KT P6SM BKN250
     FM280600 VRB03KT P6SM SCT250
     FM281800 11005KT P6SM FEW250=



000
FTUS44 KSHV 272340
TAFTYR
TAF
KTYR 272340Z 2800/2824 16005KT P6SM BKN250
     FM280100 12004KT P6SM BKN250
     FM281500 16006KT P6SM FEW250=



000
FTUS44 KSHV 272340
TAFMLU
TAF
KMLU 272340Z 2800/2824 VRB03KT P6SM BKN250
     FM281500 VRB04KT P6SM SCT250=



000
FTUS44 KSHV 272340
TAFTXK
TAF
KTXK 272340Z 2800/2824 VRB03KT P6SM BKN250
     FM281500 VRB05KT P6SM SCT250=



000
FTUS44 KSHV 272340
TAFGGG
TAF
KGGG 272340Z 2800/2824 VRB05KT P6SM BKN250
     FM280100 VRB04KT P6SM BKN250
     FM282100 12005KT P6SM FEW250=



000
FTUS44 KSHV 272340
TAFELD
TAF
KELD 272340Z 2800/2824 VRB03KT P6SM BKN250
     FM281500 VRB04KT P6SM SCT250=



000
FTUS44 KSHV 272340
TAFLFK
TAF
KLFK 272340Z 2800/2824 VRB05KT P6SM BKN250
     FM280100 VRB03KT P6SM BKN250
     FM281800 VRB05KT P6SM FEW250=



000
FTUS44 KSHV 272109 AAA
TAFMLU
TAF AMD
KMLU 272109Z 2721/2818 03008KT P6SM BKN250
     FM280000 VRB03KT P6SM BKN250
     FM281500 VRB03KT P6SM SCT250=



000
FTUS44 KSHV 272109 AAA
TAFMLU
TAF AMD
KMLU 272109Z 2721/2818 03008KT P6SM BKN250
     FM280000 VRB03KT P6SM BKN250
     FM281500 VRB03KT P6SM SCT250=



000
FTUS44 KSHV 271726
TAFGGG
TAF
KGGG 271726Z 2718/2818 VRB05KT P6SM BKN250
     FM280100 VRB04KT P6SM BKN250
     FM281500 16005KT P6SM BKN250=



000
FTUS44 KSHV 271726
TAFSHV
TAF
KSHV 271726Z 2718/2818 08005KT P6SM BKN250
     FM280000 VRB04KT P6SM BKN250
     FM280600 VRB03KT P6SM SCT250=



000
FTUS44 KSHV 271726
TAFMLU
TAF
KMLU 271726Z 2718/2818 04006KT P6SM FEW050
     FM280000 VRB03KT P6SM SKC
     FM281500 VRB03KT P6SM SCT250=



000
FTUS44 KSHV 271726
TAFLFK
TAF
KLFK 271726Z 2718/2818 VRB05KT P6SM BKN250
     FM280100 VRB03KT P6SM BKN250
     FM281500 17004KT P6SM SCT250=



000
FTUS44 KSHV 271726
TAFTYR
TAF
KTYR 271726Z 2718/2818 16005KT P6SM BKN250
     FM280100 12004KT P6SM BKN250
     FM281500 16006KT P6SM BKN250=



000
FTUS44 KSHV 271726
TAFTXK
TAF
KTXK 271726Z 2718/2818 VRB05KT P6SM BKN250
     FM280000 VRB03KT P6SM BKN250
     FM281500 15004KT P6SM SCT250=



000
FTUS44 KSHV 271726
TAFMLU
TAF
KMLU 271726Z 2718/2818 04006KT P6SM FEW050
     FM280000 VRB03KT P6SM SKC
     FM281500 VRB03KT P6SM SCT250=



000
FTUS44 KSHV 271726
TAFGGG
TAF
KGGG 271726Z 2718/2818 VRB05KT P6SM BKN250
     FM280100 VRB04KT P6SM BKN250
     FM281500 16005KT P6SM BKN250=



000
FTUS44 KSHV 271726
TAFTYR
TAF
KTYR 271726Z 2718/2818 16005KT P6SM BKN250
     FM280100 12004KT P6SM BKN250
     FM281500 16006KT P6SM BKN250=



000
FTUS44 KSHV 271726
TAFELD
TAF
KELD 271726Z 2718/2818 03006KT P6SM SCT250
     FM280000 00000KT P6SM BKN250
     FM281500 VRB04KT P6SM SCT250=



000
FTUS44 KSHV 271726
TAFLFK
TAF
KLFK 271726Z 2718/2818 VRB05KT P6SM BKN250
     FM280100 VRB03KT P6SM BKN250
     FM281500 17004KT P6SM SCT250=



000
FTUS44 KSHV 271726
TAFSHV
TAF
KSHV 271726Z 2718/2818 08005KT P6SM BKN250
     FM280000 VRB04KT P6SM BKN250
     FM280600 VRB03KT P6SM SCT250=



000
FTUS44 KSHV 271726
TAFELD
TAF
KELD 271726Z 2718/2818 03006KT P6SM SCT250
     FM280000 00000KT P6SM BKN250
     FM281500 VRB04KT P6SM SCT250=



000
FTUS44 KSHV 271726
TAFTXK
TAF
KTXK 271726Z 2718/2818 VRB05KT P6SM BKN250
     FM280000 VRB03KT P6SM BKN250
     FM281500 15004KT P6SM SCT250=



000
FTUS44 KSHV 271120
TAFSHV
TAF
KSHV 271120Z 2712/2812 00000KT P6SM SKC
     FM271900 05007KT P6SM FEW250
     FM280000 VRB04KT P6SM SKC=



000
FTUS44 KSHV 271120
TAFMLU
TAF
KMLU 271120Z 2712/2812 00000KT P6SM SCT060
     FM271700 03009KT P6SM SKC
     FM280000 05003KT P6SM SKC=



000
FTUS44 KSHV 271120
TAFLFK
TAF
KLFK 271120Z 2712/2812 00000KT P6SM SKC
     FM271800 04005KT P6SM SKC
     FM280100 VRB03KT P6SM SKC=



000
FTUS44 KSHV 271120
TAFTYR
TAF
KTYR 271120Z 2712/2812 00000KT P6SM SKC
     FM271500 16006KT P6SM SCT250
     FM280100 VRB03KT P6SM SKC=



000
FTUS44 KSHV 271120
TAFLFK
TAF
KLFK 271120Z 2712/2812 00000KT P6SM SKC
     FM271800 04005KT P6SM SKC
     FM280100 VRB03KT P6SM SKC=



000
FTUS44 KSHV 271120
TAFTXK
TAF
KTXK 271120Z 2712/2812 00000KT P6SM SKC
     FM271500 12007KT P6SM SKC
     FM280000 VRB03KT P6SM SKC=



000
FTUS44 KSHV 271120
TAFGGG
TAF
KGGG 271120Z 2712/2812 00000KT P6SM SKC
     FM271500 16006KT P6SM FEW250
     FM280100 VRB03KT P6SM SKC=



000
FTUS44 KSHV 271120
TAFTXK
TAF
KTXK 271120Z 2712/2812 00000KT P6SM SKC
     FM271500 12007KT P6SM SKC
     FM280000 VRB03KT P6SM SKC=



000
FTUS44 KSHV 271120
TAFSHV
TAF
KSHV 271120Z 2712/2812 00000KT P6SM SKC
     FM271900 05007KT P6SM FEW250
     FM280000 VRB04KT P6SM SKC=



000
FTUS44 KSHV 271120
TAFTYR
TAF
KTYR 271120Z 2712/2812 00000KT P6SM SKC
     FM271500 16006KT P6SM SCT250
     FM280100 VRB03KT P6SM SKC=



000
FTUS44 KSHV 271120
TAFELD
TAF
KELD 271120Z 2712/2812 00000KT P6SM SKC
     FM271900 03007KT P6SM SKC
     FM280100 VRB03KT P6SM SKC=



000
FTUS44 KSHV 271120
TAFELD
TAF
KELD 271120Z 2712/2812 00000KT P6SM SKC
     FM271900 03007KT P6SM SKC
     FM280100 VRB03KT P6SM SKC=



000
FTUS44 KSHV 271120
TAFMLU
TAF
KMLU 271120Z 2712/2812 00000KT P6SM SCT060
     FM271700 03009KT P6SM SKC
     FM280000 05003KT P6SM SKC=



000
FTUS44 KSHV 271120
TAFGGG
TAF
KGGG 271120Z 2712/2812 00000KT P6SM SKC
     FM271500 16006KT P6SM FEW250
     FM280100 VRB03KT P6SM SKC=



000
FTUS44 KSHV 270536
TAFGGG
TAF
KGGG 270536Z 2706/2806 VRB03KT P6SM SKC
     FM271500 16006KT P6SM FEW250
     FM280100 VRB03KT P6SM SKC=



000
FTUS44 KSHV 270536
TAFSHV
TAF
KSHV 270536Z 2706/2806 VRB03KT P6SM SKC
     FM271900 05007KT P6SM FEW250
     FM280000 08004KT P6SM SKC=



000
FTUS44 KSHV 270536
TAFLFK
TAF
KLFK 270536Z 2706/2806 VRB03KT P6SM SKC
     FM271400 10004KT P6SM SCT045
     FM271800 04005KT P6SM SKC
     FM280100 07003KT P6SM SKC=



000
FTUS44 KSHV 270536
TAFMLU
TAF
KMLU 270536Z 2706/2806 VRB04KT P6SM SKC
     FM271700 03009KT P6SM SKC
     FM280000 VRB03KT P6SM SKC=



000
FTUS44 KSHV 270536
TAFTXK
TAF
KTXK 270536Z 2706/2806 VRB03KT P6SM SKC
     FM271500 10007KT P6SM SCT045
     FM280000 VRB03KT P6SM SKC=



000
FTUS44 KSHV 270536
TAFELD
TAF
KELD 270536Z 2706/2806 VRB03KT P6SM SKC
     FM271900 02007KT P6SM SKC
     FM280100 VRB03KT P6SM SKC=



000
FTUS44 KSHV 270536
TAFTYR
TAF
KTYR 270536Z 2706/2806 VRB03KT P6SM SKC
     FM271500 16006KT P6SM FEW250
     FM280100 VRB03KT P6SM SKC=



000
FTUS44 KSHV 262337
TAFELD
TAF
KELD 262337Z 2700/2724 02005KT P6SM SKC
     FM270100 VRB03KT P6SM SKC
     FM270900 00000KT P6SM SCT045
     FM271900 02007KT P6SM SKC=



000
FTUS44 KSHV 262337
TAFMLU
TAF
KMLU 262337Z 2700/2724 VRB03KT P6SM SKC
     FM270900 00000KT P6SM SCT045
     FM271400 03003KT P6SM SKC
     FM271700 03007KT P6SM SKC=



000
FTUS44 KSHV 262337
TAFSHV
TAF
KSHV 262337Z 2700/2724 05006KT P6SM SKC
     FM270300 08003KT P6SM SKC
     FM271400 10003KT P6SM SCT045=



000
FTUS44 KSHV 262337
TAFTYR
TAF
KTYR 262337Z 2700/2724 VRB04KT P6SM SKC
     FM271400 13005KT P6SM SKC
     FM271800 03006KT P6SM SKC=



000
FTUS44 KSHV 262337
TAFTXK
TAF
KTXK 262337Z 2700/2724 VRB03KT P6SM SKC
     FM271500 09004KT P6SM SCT045
     FM271900 VRB04KT P6SM SKC=



000
FTUS44 KSHV 262337
TAFLFK
TAF
KLFK 262337Z 2700/2724 VRB04KT P6SM SKC
     FM271400 10004KT P6SM SCT045
     FM271800 03004KT P6SM SKC=



000
FTUS44 KSHV 262337
TAFGGG
TAF
KGGG 262337Z 2700/2724 VRB04KT P6SM SKC
     FM271400 13005KT P6SM SKC
     FM271800 03006KT P6SM SKC=



000
FTUS44 KSHV 262337
TAFGGG
TAF
KGGG 262337Z 2700/2724 VRB04KT P6SM SKC
     FM271400 13005KT P6SM SKC
     FM271800 03006KT P6SM SKC=



000
FTUS44 KSHV 262337
TAFLFK
TAF
KLFK 262337Z 2700/2724 VRB04KT P6SM SKC
     FM271400 10004KT P6SM SCT045
     FM271800 03004KT P6SM SKC=



000
FTUS44 KSHV 262337
TAFTYR
TAF
KTYR 262337Z 2700/2724 VRB04KT P6SM SKC
     FM271400 13005KT P6SM SKC
     FM271800 03006KT P6SM SKC=



000
FTUS44 KSHV 262337
TAFTXK
TAF
KTXK 262337Z 2700/2724 VRB03KT P6SM SKC
     FM271500 09004KT P6SM SCT045
     FM271900 VRB04KT P6SM SKC=



000
FTUS44 KSHV 262337
TAFELD
TAF
KELD 262337Z 2700/2724 02005KT P6SM SKC
     FM270100 VRB03KT P6SM SKC
     FM270900 00000KT P6SM SCT045
     FM271900 02007KT P6SM SKC=



000
FTUS44 KSHV 262337
TAFMLU
TAF
KMLU 262337Z 2700/2724 VRB03KT P6SM SKC
     FM270900 00000KT P6SM SCT045
     FM271400 03003KT P6SM SKC
     FM271700 03007KT P6SM SKC=



000
FTUS44 KSHV 262337
TAFSHV
TAF
KSHV 262337Z 2700/2724 05006KT P6SM SKC
     FM270300 08003KT P6SM SKC
     FM271400 10003KT P6SM SCT045=



000
FTUS44 KSHV 261720
TAFTYR
TAF
KTYR 261720Z 2618/2718 VRB05KT P6SM SKC
     FM270100 VRB03KT P6SM SKC
     FM271400 VRB05KT P6SM SKC=



000
FTUS44 KSHV 261720
TAFLFK
TAF
KLFK 261720Z 2618/2718 VRB05KT P6SM SKC
     FM270100 00000KT P6SM SKC
     FM271400 VRB04KT P6SM SKC=



000
FTUS44 KSHV 261720
TAFMLU
TAF
KMLU 261720Z 2618/2718 36005KT P6SM SKC
     FM270100 00000KT P6SM SKC
     FM271400 VRB04KT P6SM SKC=



000
FTUS44 KSHV 261720
TAFELD
TAF
KELD 261720Z 2618/2718 VRB05KT P6SM SKC
     FM270100 00000KT P6SM SKC
     FM271400 VRB04KT P6SM SKC=



000
FTUS44 KSHV 261720
TAFSHV
TAF
KSHV 261720Z 2618/2718 04005KT P6SM SKC
     FM270100 00000KT P6SM SKC
     FM271400 VRB04KT P6SM SKC=



000
FTUS44 KSHV 261720
TAFGGG
TAF
KGGG 261720Z 2618/2718 VRB05KT P6SM SKC
     FM270100 00000KT P6SM SKC
     FM271400 VRB05KT P6SM SKC=



000
FTUS44 KSHV 261720
TAFTXK
TAF
KTXK 261720Z 2618/2718 VRB04KT P6SM SKC
     FM270000 00000KT P6SM SKC
     FM271400 VRB04KT P6SM SKC=



000
FTUS44 KSHV 261720
TAFSHV
TAF
KSHV 261720Z 2618/2718 04005KT P6SM SKC
     FM270100 00000KT P6SM SKC
     FM271400 VRB04KT P6SM SKC=



000
FTUS44 KSHV 261720
TAFTXK
TAF
KTXK 261720Z 2618/2718 VRB04KT P6SM SKC
     FM270000 00000KT P6SM SKC
     FM271400 VRB04KT P6SM SKC=



000
FTUS44 KSHV 261720
TAFGGG
TAF
KGGG 261720Z 2618/2718 VRB05KT P6SM SKC
     FM270100 00000KT P6SM SKC
     FM271400 VRB05KT P6SM SKC=



000
FTUS44 KSHV 261720
TAFLFK
TAF
KLFK 261720Z 2618/2718 VRB05KT P6SM SKC
     FM270100 00000KT P6SM SKC
     FM271400 VRB04KT P6SM SKC=



000
FTUS44 KSHV 261720
TAFMLU
TAF
KMLU 261720Z 2618/2718 36005KT P6SM SKC
     FM270100 00000KT P6SM SKC
     FM271400 VRB04KT P6SM SKC=



000
FTUS44 KSHV 261720
TAFELD
TAF
KELD 261720Z 2618/2718 VRB05KT P6SM SKC
     FM270100 00000KT P6SM SKC
     FM271400 VRB04KT P6SM SKC=



000
FTUS44 KSHV 261720
TAFTYR
TAF
KTYR 261720Z 2618/2718 VRB05KT P6SM SKC
     FM270100 VRB03KT P6SM SKC
     FM271400 VRB05KT P6SM SKC=



000
FTUS44 KSHV 261120
TAFTXK
TAF
KTXK 261120Z 2612/2712 00000KT P6SM SKC
     FM261400 04006KT P6SM SKC
     FM261800 03008KT P6SM SKC
     FM270000 04003KT P6SM SKC=



000
FTUS44 KSHV 261120
TAFSHV
TAF
KSHV 261120Z 2612/2712 00000KT P6SM SKC
     FM261600 03008KT P6SM SKC
     FM270100 08003KT P6SM SKC=



000
FTUS44 KSHV 261120
TAFTYR
TAF
KTYR 261120Z 2612/2712 00000KT P6SM SKC
     FM261400 VRB05KT P6SM SKC
     FM261600 08006KT P6SM SKC
     FM270100 09003KT P6SM SKC=



000
FTUS44 KSHV 261120
TAFSHV
TAF
KSHV 261120Z 2612/2712 00000KT P6SM SKC
     FM261600 03008KT P6SM SKC
     FM270100 08003KT P6SM SKC=



000
FTUS44 KSHV 261120
TAFLFK
TAF
KLFK 261120Z 2612/2712 00000KT P6SM SCT060
     FM261600 07006KT P6SM SKC
     FM270000 02003KT P6SM SKC=



000
FTUS44 KSHV 261120
TAFTXK
TAF
KTXK 261120Z 2612/2712 00000KT P6SM SKC
     FM261400 04006KT P6SM SKC
     FM261800 03008KT P6SM SKC
     FM270000 04003KT P6SM SKC=



000
FTUS44 KSHV 261120
TAFELD
TAF
KELD 261120Z 2612/2712 00000KT P6SM SKC
     FM261700 02006KT P6SM SKC
     FM270000 36003KT P6SM SKC=



000
FTUS44 KSHV 261120
TAFLFK
TAF
KLFK 261120Z 2612/2712 00000KT P6SM SCT060
     FM261600 07006KT P6SM SKC
     FM270000 02003KT P6SM SKC=



000
FTUS44 KSHV 261120
TAFELD
TAF
KELD 261120Z 2612/2712 00000KT P6SM SKC
     FM261700 02006KT P6SM SKC
     FM270000 36003KT P6SM SKC=



000
FTUS44 KSHV 261120
TAFMLU
TAF
KMLU 261120Z 2612/2712 00000KT P6SM SKC
     FM261400 03006KT P6SM SKC
     FM261800 01010G17KT P6SM SKC
     FM270000 02003KT P6SM SKC=



000
FTUS44 KSHV 261120
TAFGGG
TAF
KGGG 261120Z 2612/2712 00000KT P6SM SKC
      TEMPO 2612/2614 4SM BR
     FM261600 07006KT P6SM SKC
     FM270100 07003KT P6SM SKC=



000
FTUS44 KSHV 261120
TAFGGG
TAF
KGGG 261120Z 2612/2712 00000KT P6SM SKC
      TEMPO 2612/2614 4SM BR
     FM261600 07006KT P6SM SKC
     FM270100 07003KT P6SM SKC=



000
FTUS44 KSHV 261120
TAFTYR
TAF
KTYR 261120Z 2612/2712 00000KT P6SM SKC
     FM261400 VRB05KT P6SM SKC
     FM261600 08006KT P6SM SKC
     FM270100 09003KT P6SM SKC=



000
FTUS44 KSHV 261120
TAFMLU
TAF
KMLU 261120Z 2612/2712 00000KT P6SM SKC
     FM261400 03006KT P6SM SKC
     FM261800 01010G17KT P6SM SKC
     FM270000 02003KT P6SM SKC=



000
FTUS44 KSHV 260914 AAA
TAFGGG
TAF AMD
KGGG 260914Z 2609/2706 00000KT P6SM SKC
      TEMPO 2609/2613 2SM BR
     FM261600 07006KT P6SM SKC
     FM270100 07003KT P6SM SKC=



000
FTUS44 KSHV 260534
TAFMLU
TAF
KMLU 260534Z 2606/2706 00000KT P6SM SKC
     FM261400 03006KT P6SM SKC
     FM261800 01010KT P6SM SKC
     FM270000 02005KT P6SM SKC=



000
FTUS44 KSHV 260534
TAFGGG
TAF
KGGG 260534Z 2606/2706 00000KT P6SM SKC
     FM261600 07006KT P6SM SKC
     FM270100 07003KT P6SM SKC=



000
FTUS44 KSHV 260534
TAFSHV
TAF
KSHV 260534Z 2606/2706 00000KT P6SM SKC
     FM261600 04008KT P6SM SKC
     FM270100 04004KT P6SM SKC=



000
FTUS44 KSHV 260534
TAFTXK
TAF
KTXK 260534Z 2606/2706 15004KT P6SM SKC
     FM261400 04006KT P6SM SKC
     FM261800 03008KT P6SM SKC
     FM270000 04005KT P6SM SKC=



000
FTUS44 KSHV 260534
TAFELD
TAF
KELD 260534Z 2606/2706 00000KT P6SM SKC
     FM261700 02006KT P6SM SKC
     FM270000 36004KT P6SM SKC=



000
FTUS44 KSHV 260534
TAFLFK
TAF
KLFK 260534Z 2606/2706 00000KT P6SM SKC
     FM261600 07006KT P6SM SKC
     FM270000 02004KT P6SM SKC=



000
FTUS44 KSHV 260534
TAFTYR
TAF
KTYR 260534Z 2606/2706 13003KT P6SM SKC
     FM261400 VRB05KT P6SM SKC
     FM261600 09006KT P6SM SKC
     FM270100 07003KT P6SM SKC=



000
FTUS44 KSHV 252339
TAFSHV
TAF
KSHV 252339Z 2600/2624 05003KT P6SM SKC
     FM261400 04007KT P6SM SKC=



000
FTUS44 KSHV 252339
TAFTYR
TAF
KTYR 252339Z 2600/2624 VRB04KT P6SM FEW040 SCT250
     FM261400 VRB05KT P6SM SKC=



000
FTUS44 KSHV 252339
TAFGGG
TAF
KGGG 252339Z 2600/2624 VRB04KT P6SM SKC
     FM261400 VRB05KT P6SM SKC=



000
FTUS44 KSHV 252339
TAFMLU
TAF
KMLU 252339Z 2600/2624 03004KT P6SM SCT150 SCT250
     FM261400 01007KT P6SM SKC=



000
FTUS44 KSHV 252339
TAFLFK
TAF
KLFK 252339Z 2600/2624 06004KT P6SM BKN080 BKN250
      TEMPO 2604/2607 BKN025
     FM261400 09006KT P6SM SKC=



000
FTUS44 KSHV 252339
TAFTXK
TAF
KTXK 252339Z 2600/2624 04003KT P6SM SKC
     FM261400 04006KT P6SM SKC=



000
FTUS44 KSHV 252339
TAFELD
TAF
KELD 252339Z 2600/2624 00000KT P6SM SKC
     FM261400 36007KT P6SM SKC=



000
FTUS44 KSHV 252039 AAA
TAFLFK
TAF AMD
KLFK 252039Z 2521/2618 07005KT P6SM SCT025
     FM260100 04004KT P6SM FEW060 SCT250=



000
FTUS44 KSHV 251720
TAFTXK
TAF
KTXK 251720Z 2518/2618 06005KT P6SM SCT045 SCT250
     FM252200 05006KT P6SM SKC
     FM260000 04003KT P6SM SKC=



000
FTUS44 KSHV 251720
TAFMLU
TAF
KMLU 251720Z 2518/2618 03009G15KT P6SM SKC
     FM260000 03004KT P6SM SKC=



000
FTUS44 KSHV 251720
TAFGGG
TAF
KGGG 251720Z 2518/2618 09005KT P6SM SCT020
     FM260100 07004KT P6SM FEW060=



000
FTUS44 KSHV 251720
TAFELD
TAF
KELD 251720Z 2518/2618 02006KT P6SM SKC
     FM260100 00000KT P6SM SKC=



000
FTUS44 KSHV 251720
TAFTYR
TAF
KTYR 251720Z 2518/2618 08006KT P6SM SCT050 SCT250
     FM260100 VRB05KT P6SM FEW060=



000
FTUS44 KSHV 251720
TAFLFK
TAF
KLFK 251720Z 2518/2618 VRB03KT P6SM VCTS SCT045CB SCT100 BKN250
     FM252000 04005KT P6SM VCTS SCT050CB SCT250
     FM260100 04004KT P6SM FEW060 SCT250=



000
FTUS44 KSHV 251720
TAFMLU
TAF
KMLU 251720Z 2518/2618 03009G15KT P6SM SKC
     FM260000 03004KT P6SM SKC=



000
FTUS44 KSHV 251720
TAFSHV
TAF
KSHV 251720Z 2518/2618 04007KT P6SM VCTS SCT050CB SCT250
     FM260000 05003KT P6SM SKC=



000
FTUS44 KSHV 251720
TAFLFK
TAF
KLFK 251720Z 2518/2618 VRB03KT P6SM VCTS SCT045CB SCT100 BKN250
     FM252000 04005KT P6SM VCTS SCT050CB SCT250
     FM260100 04004KT P6SM FEW060 SCT250=



000
FTUS44 KSHV 251720
TAFTXK
TAF
KTXK 251720Z 2518/2618 06005KT P6SM SCT045 SCT250
     FM252200 05006KT P6SM SKC
     FM260000 04003KT P6SM SKC=



000
FTUS44 KSHV 251720
TAFELD
TAF
KELD 251720Z 2518/2618 02006KT P6SM SKC
     FM260100 00000KT P6SM SKC=



000
FTUS44 KSHV 251720
TAFTYR
TAF
KTYR 251720Z 2518/2618 08006KT P6SM SCT050 SCT250
     FM260100 VRB05KT P6SM FEW060=



000
FTUS44 KSHV 251720
TAFGGG
TAF
KGGG 251720Z 2518/2618 09005KT P6SM SCT020
     FM260100 07004KT P6SM FEW060=



000
FTUS44 KSHV 251720
TAFSHV
TAF
KSHV 251720Z 2518/2618 04007KT P6SM VCTS SCT050CB SCT250
     FM260000 05003KT P6SM SKC=



000
FTUS44 KSHV 251629 AAB
TAFGGG
TAF AMD
KGGG 251629Z 2516/2612 08006KT P6SM OVC011
     FM251730 07005KT P6SM SCT020
     FM260100 07004KT P6SM FEW060=



000
FTUS44 KSHV 251629 AAB
TAFGGG
TAF AMD
KGGG 251629Z 2516/2612 08006KT P6SM OVC011
     FM251730 07005KT P6SM SCT020
     FM260100 07004KT P6SM FEW060=



000
FTUS44 KSHV 251510 AAB
TAFSHV
TAF AMD
KSHV 251510Z 2515/2612 25004KT P6SM VCTS OVC015CB
     FM251600 25004KT P6SM BKN030
     FM251800 04007KT P6SM VCTS SCT050CB SCT250
     FM260000 05003KT P6SM SKC=



000
FTUS44 KSHV 251402 AAA
TAFGGG
TAF AMD
KGGG 251402Z 2514/2612 08005KT P6SM VCTS SCT050CB
      TEMPO 2514/2515 VRB15G25KT 2SM TSRA OVC025CB
     FM251600 08006KT P6SM SCT050 SCT250
     FM260100 07004KT P6SM FEW060=



    US Dept of Commerce
    National Oceanic and Atmospheric Administration
    National Weather Service
    1325 East West Highway
    Silver Spring, MD 20910
    Page Author: NWS Internet Services Team
Disclaimer
Information Quality
Credits
Glossary
Privacy Policy
Freedom of Information Act (FOIA)
About Us
Career Opportunities